Time;durP1;ratioP1;P1;durP2;ratioP2;P2;SDS_P1;SDS_P2;PMS_P1;PMS_P2;Temp;Humidity;BMP_temperature;BMP_pressure;BME280_temperature;BME280_humidity;BME280_pressure;Samples;Min_cycle;Max_cycle;Signal;HPM_P1;HPM_P2
2021/09/25 02:46:49;;;;;;;11.05;7.35;;;14.30;96.20;;;;;;5180647;24;20059;-81
2021/09/25 02:49:16;;;;;;;9.07;7.20;;;14.30;96.30;;;;;;4763698;30;20070;-81
2021/09/25 02:51:41;;;;;;;10.25;7.75;;;14.20;96.30;;;;;;4734483;30;20043;-81
2021/09/25 02:54:07;;;;;;;11.43;8.30;;;14.20;96.40;;;;;;4748481;30;20044;-81
2021/09/25 02:56:33;;;;;;;12.57;7.68;;;14.20;96.50;;;;;;4733979;30;20048;-81
2021/09/25 02:58:59;;;;;;;13.00;8.75;;;14.20;96.50;;;;;;4734601;30;20040;-81
2021/09/25 03:01:25;;;;;;;10.02;7.40;;;14.20;96.50;;;;;;4734404;30;20028;-81
2021/09/25 03:03:54;;;;;;;9.90;7.88;;;14.20;96.60;;;;;;4749014;30;20059;-81
2021/09/25 03:06:24;;;;;;;9.43;7.35;;;14.10;96.50;;;;;;4748743;30;20032;-81
2021/09/25 03:08:50;;;;;;;10.60;7.13;;;14.10;96.60;;;;;;4734139;30;20036;-81
2021/09/25 03:11:16;;;;;;;14.50;8.95;;;14.10;96.50;;;;;;4749235;30;20039;-81
2021/09/25 03:13:42;;;;;;;10.00;7.32;;;14.10;96.50;;;;;;4749038;30;20040;-81
2021/09/25 03:16:08;;;;;;;10.57;8.30;;;14.10;96.50;;;;;;4734392;30;20047;-81
2021/09/25 03:18:34;;;;;;;11.23;8.00;;;14.10;96.50;;;;;;4734023;30;20135;-81
2021/09/25 03:21:00;;;;;;;10.30;8.40;;;14.00;96.50;;;;;;4734444;30;20231;-81
2021/09/25 03:23:25;;;;;;;13.00;8.43;;;14.00;96.70;;;;;;4748221;30;20051;-81
2021/09/25 03:25:51;;;;;;;11.27;8.20;;;14.00;96.70;;;;;;4749141;30;20327;-81
2021/09/25 03:28:17;;;;;;;11.02;8.18;;;14.00;96.60;;;;;;4765246;30;20069;-81
2021/09/25 03:30:44;;;;;;;10.68;8.35;;;13.90;96.70;;;;;;4748987;30;20039;-81
2021/09/25 03:33:10;;;;;;;11.93;8.33;;;13.90;96.90;;;;;;4748639;30;20319;-81
2021/09/25 03:35:36;;;;;;;13.90;8.55;;;13.90;97.10;;;;;;4733801;30;20036;-81
2021/09/25 03:38:02;;;;;;;14.02;9.32;;;13.90;97.50;;;;;;4733967;30;20036;-81
2021/09/25 03:40:29;;;;;;;18.20;10.50;;;13.90;97.30;;;;;;4733989;30;20032;-81
2021/09/25 03:42:55;;;;;;;11.82;8.02;;;13.90;97.50;;;;;;4733988;30;20036;-81
2021/09/25 03:45:21;;;;;;;16.60;9.67;;;13.90;97.40;;;;;;4733452;30;20040;-83
2021/09/25 03:47:47;;;;;;;11.27;9.48;;;13.90;97.20;;;;;;4748447;30;20067;-81
2021/09/25 03:50:14;;;;;;;12.15;8.93;;;13.90;97.20;;;;;;4734151;30;20040;-81
2021/09/25 03:52:40;;;;;;;10.70;7.80;;;13.90;97.20;;;;;;4734103;30;20036;-81
2021/09/25 03:55:07;;;;;;;13.20;10.00;;;13.80;97.20;;;;;;4764498;30;20082;-82
2021/09/25 03:57:34;;;;;;;13.63;9.05;;;13.90;97.10;;;;;;4733902;30;20039;-82
2021/09/25 03:59:59;;;;;;;13.15;9.15;;;13.80;97.10;;;;;;4764627;30;20039;-82
2021/09/25 04:02:26;;;;;;;16.63;10.05;;;13.80;97.00;;;;;;4733293;30;20036;-82
2021/09/25 04:04:51;;;;;;;10.77;8.98;;;13.80;97.10;;;;;;4733784;30;20032;-81
2021/09/25 04:07:17;;;;;;;18.80;10.52;;;13.80;97.10;;;;;;4748369;30;20074;-81
2021/09/25 04:09:43;;;;;;;14.32;8.75;;;13.80;97.10;;;;;;4733362;30;20054;-81
2021/09/25 04:12:09;;;;;;;10.48;8.07;;;13.80;97.00;;;;;;4733138;30;20032;-82
2021/09/25 04:14:35;;;;;;;11.65;8.95;;;13.70;96.90;;;;;;4747641;30;20100;-82
2021/09/25 04:17:00;;;;;;;12.98;8.85;;;13.70;96.80;;;;;;4748070;30;20107;-82
2021/09/25 04:19:26;;;;;;;13.10;9.57;;;13.70;96.80;;;;;;4748159;30;20032;-82
2021/09/25 04:21:53;;;;;;;13.13;8.93;;;13.70;96.70;;;;;;4747825;30;20340;-82
2021/09/25 04:24:19;;;;;;;11.65;8.55;;;13.70;96.70;;;;;;4733238;30;20085;-83
2021/09/25 04:26:44;;;;;;;15.75;10.60;;;13.70;96.70;;;;;;4748137;30;20119;-82
2021/09/25 04:29:11;;;;;;;17.48;9.57;;;13.60;96.80;;;;;;4733061;30;20213;-82
2021/09/25 04:31:37;;;;;;;17.60;9.48;;;13.60;97.10;;;;;;4748533;30;20040;-82
2021/09/25 04:34:03;;;;;;;14.68;10.30;;;13.60;96.90;;;;;;4748041;30;20032;-82
2021/09/25 04:36:29;;;;;;;13.88;9.50;;;13.60;96.90;;;;;;4735257;30;20032;-82
2021/09/25 04:38:56;;;;;;;12.30;8.88;;;13.60;97.00;;;;;;4736602;30;20032;-82
2021/09/25 04:41:21;;;;;;;13.90;9.52;;;13.60;96.90;;;;;;4736333;30;20036;-82
2021/09/25 04:43:47;;;;;;;15.00;10.70;;;13.50;96.90;;;;;;4736091;30;20039;-82
2021/09/25 04:46:13;;;;;;;15.48;9.07;;;13.50;96.90;;;;;;4750453;30;20335;-82
2021/09/25 04:48:39;;;;;;;14.85;9.95;;;13.50;96.90;;;;;;4736121;30;20032;-82
2021/09/25 04:51:04;;;;;;;14.55;8.95;;;13.50;96.80;;;;;;4736458;30;20040;-82
2021/09/25 04:53:30;;;;;;;14.70;10.00;;;13.50;96.80;;;;;;4735656;30;20031;-82
2021/09/25 04:55:57;;;;;;;16.58;9.90;;;13.50;96.80;;;;;;4735878;30;20113;-82
2021/09/25 04:58:28;;;;;;;13.30;9.48;;;13.50;97.00;;;;;;4750724;30;20039;-82
2021/09/25 05:00:55;;;;;;;18.60;9.65;;;13.50;97.00;;;;;;4750500;30;20078;-82
2021/09/25 05:03:21;;;;;;;14.88;10.52;;;13.50;97.10;;;;;;4735979;30;20047;-82
2021/09/25 05:05:47;;;;;;;13.63;9.98;;;13.60;97.00;;;;;;4735662;30;20028;-82
2021/09/25 05:08:13;;;;;;;11.93;9.57;;;13.50;97.10;;;;;;4735624;30;20047;-82
2021/09/25 05:10:38;;;;;;;16.00;9.25;;;13.50;97.10;;;;;;4735776;30;20042;-82
2021/09/25 05:13:04;;;;;;;14.05;10.20;;;13.60;97.10;;;;;;4750320;30;20040;-82
2021/09/25 05:15:30;;;;;;;11.68;9.00;;;13.60;97.00;;;;;;4735648;30;20054;-82
2021/09/25 05:17:56;;;;;;;13.98;9.57;;;13.60;97.00;;;;;;4736152;30;20036;-82
2021/09/25 05:20:21;;;;;;;14.40;9.25;;;13.60;97.10;;;;;;4735890;30;20032;-82
2021/09/25 05:22:47;;;;;;;14.77;10.02;;;13.70;97.10;;;;;;4750401;30;20415;-82
2021/09/25 05:25:13;;;;;;;15.43;10.07;;;13.70;97.00;;;;;;4735451;30;20431;-82
2021/09/25 05:27:40;;;;;;;16.92;10.65;;;13.80;97.00;;;;;;4735704;30;20084;-82
2021/09/25 05:30:07;;;;;;;15.50;11.15;;;13.80;97.20;;;;;;4749974;30;20043;-82
2021/09/25 05:32:33;;;;;;;20.40;12.25;;;13.90;97.50;;;;;;4749982;30;20046;-82
2021/09/25 05:34:59;;;;;;;17.45;11.88;;;14.00;98.10;;;;;;4749594;30;20115;-82
2021/09/25 05:37:25;;;;;;;18.83;11.07;;;14.10;98.30;;;;;;4750028;30;20032;-82
2021/09/25 05:39:54;;;;;;;16.38;11.60;;;14.30;98.40;;;;;;4735309;30;20035;-82
2021/09/25 05:42:27;;;;;;;13.65;10.82;;;14.40;98.50;;;;;;4735262;30;20082;-81
2021/09/25 05:44:54;;;;;;;17.67;12.25;;;14.50;98.70;;;;;;4750030;30;20057;-82
2021/09/25 05:47:24;;;;;;;23.60;11.77;;;14.70;98.60;;;;;;4748941;30;20120;-82
2021/09/25 05:49:51;;;;;;;19.40;11.85;;;14.80;98.60;;;;;;4734676;30;20397;-82
2021/09/25 05:52:17;;;;;;;17.95;12.38;;;14.80;98.60;;;;;;4734892;30;20028;-82
2021/09/25 05:54:44;;;;;;;16.65;11.13;;;15.00;98.60;;;;;;4735518;30;20074;-82
2021/09/25 05:57:10;;;;;;;16.20;11.73;;;15.00;98.70;;;;;;4734626;30;20040;-82
2021/09/25 05:59:36;;;;;;;17.45;11.48;;;15.20;98.40;;;;;;4720389;30;20036;-82
2021/09/25 06:02:03;;;;;;;19.63;11.07;;;15.20;98.20;;;;;;4748775;30;20032;-81
2021/09/25 06:04:30;;;;;;;17.00;11.55;;;15.30;98.10;;;;;;4765906;30;20032;-82
2021/09/25 06:06:56;;;;;;;;;;;15.40;97.90;;;;;;4766787;30;20044;-83
2021/09/25 06:09:22;;;;;;;17.60;11.20;;;15.50;97.80;;;;;;4751606;30;19916;-83
2021/09/25 06:11:51;;;;;;;16.95;11.18;;;15.60;97.70;;;;;;4766572;30;20036;-83
2021/09/25 06:14:17;;;;;;;17.23;11.40;;;15.70;97.50;;;;;;4766603;30;20031;-81
2021/09/25 06:16:43;;;;;;;19.50;10.83;;;15.80;97.70;;;;;;4748948;30;20059;-83
2021/09/25 06:19:09;;;;;;;14.95;11.07;;;15.90;97.20;;;;;;4765003;30;20032;-83
2021/09/25 06:21:35;;;;;;;15.50;10.35;;;16.00;97.00;;;;;;4767041;30;20328;-83
2021/09/25 06:24:01;;;;;;;15.15;9.77;;;16.00;96.60;;;;;;4766276;30;20032;-83
2021/09/25 06:26:27;;;;;;;13.13;9.75;;;16.10;96.70;;;;;;4766137;30;20035;-83
2021/09/25 06:28:52;;;;;;;15.70;10.40;;;16.10;96.50;;;;;;4751193;30;20327;-82
2021/09/25 06:31:18;;;;;;;20.50;10.25;;;16.30;96.50;;;;;;4765961;30;20031;-83
2021/09/25 06:33:45;;;;;;;22.23;11.00;;;16.30;96.40;;;;;;4766259;30;20131;-81
2021/09/25 06:36:12;;;;;;;12.40;9.68;;;16.40;96.40;;;;;;4767616;30;20107;-84
2021/09/25 06:38:37;;;;;;;12.23;10.10;;;16.50;96.30;;;;;;4766166;30;20104;-81
2021/09/25 06:41:04;;;;;;;14.00;10.13;;;16.60;96.10;;;;;;4766619;30;20031;-81
2021/09/25 06:43:30;;;;;;;16.80;10.47;;;16.70;95.90;;;;;;4766450;30;20101;-81
2021/09/25 06:45:56;;;;;;;14.27;10.25;;;16.70;95.90;;;;;;4751346;30;20327;-81
2021/09/25 06:48:21;;;;;;;12.93;10.50;;;16.80;95.80;;;;;;4763748;30;20331;-82
2021/09/25 06:50:47;;;;;;;17.38;10.65;;;16.90;95.70;;;;;;4751087;30;20035;-82
2021/09/25 06:53:14;;;;;;;14.90;10.30;;;17.00;95.50;;;;;;4781830;30;20027;-82
2021/09/25 06:55:39;;;;;;;14.20;10.82;;;17.10;95.20;;;;;;4766375;30;20047;-82
2021/09/25 06:58:06;;;;;;;18.63;10.85;;;17.20;95.00;;;;;;4780299;30;20099;-82
2021/09/25 07:00:35;;;;;;;13.55;10.23;;;17.30;94.60;;;;;;4750127;30;20028;-82
2021/09/25 07:03:01;;;;;;;13.85;10.07;;;17.40;94.40;;;;;;4765722;30;20261;-82
2021/09/25 07:05:27;;;;;;;16.38;10.50;;;17.50;94.20;;;;;;4780664;30;20104;-83
2021/09/25 07:07:53;;;;;;;16.02;9.68;;;17.60;94.00;;;;;;4750546;30;20027;-83
2021/09/25 07:10:19;;;;;;;16.92;10.27;;;17.70;93.80;;;;;;4750947;30;20066;-83
2021/09/25 07:12:45;;;;;;;12.57;10.07;;;17.80;93.60;;;;;;4750898;30;20110;-82
2021/09/25 07:15:12;;;;;;;15.95;10.10;;;17.80;93.70;;;;;;4765024;30;20043;-83
2021/09/25 07:17:39;;;;;;;15.20;10.55;;;17.90;93.50;;;;;;4750060;30;20055;-82
2021/09/25 07:20:07;;;;;;;12.43;8.60;;;18.00;93.20;;;;;;4765532;30;20023;-81
2021/09/25 07:22:33;;;;;;;11.18;8.55;;;18.10;92.90;;;;;;4749555;30;20027;-82
2021/09/25 07:24:59;;;;;;;12.45;9.50;;;18.30;92.80;;;;;;4766588;30;20043;-80
2021/09/25 07:27:26;;;;;;;13.30;8.15;;;18.40;92.80;;;;;;4764454;30;20036;-81
2021/09/25 07:29:52;;;;;;;12.67;7.93;;;18.60;92.20;;;;;;4767705;30;20725;-81
2021/09/25 07:32:18;;;;;;;13.88;8.10;;;18.70;91.70;;;;;;4783678;30;20901;-81
2021/09/25 07:34:45;;;;;;;13.65;8.15;;;18.80;91.30;;;;;;4783608;30;20045;-81
2021/09/25 07:37:11;;;;;;;12.30;7.90;;;18.90;91.10;;;;;;4757921;30;20097;-81
2021/09/25 07:39:38;;;;;;;13.40;7.82;;;19.00;90.70;;;;;;4767141;30;20575;-81
2021/09/25 07:42:05;;;;;;;12.77;7.13;;;19.20;90.50;;;;;;4766828;30;20127;-81
2021/09/25 07:44:32;;;;;;;9.35;6.75;;;19.40;90.30;;;;;;4752235;30;20043;-80
2021/09/25 07:46:57;;;;;;;15.05;7.70;;;19.60;90.30;;;;;;4766473;30;20043;-84
2021/09/25 07:49:23;;;;;;;16.20;7.72;;;19.80;89.50;;;;;;4751371;30;20085;-83
2021/09/25 07:51:49;;;;;;;8.38;6.00;;;19.90;89.30;;;;;;4765892;30;20208;-84
2021/09/25 07:54:15;;;;;;;12.15;7.32;;;20.00;87.30;;;;;;4751960;30;20040;-84
2021/09/25 07:56:41;;;;;;;11.43;6.95;;;20.10;86.30;;;;;;4751455;30;20087;-84
2021/09/25 07:59:06;;;;;;;15.18;7.15;;;20.20;85.00;;;;;;4765556;30;20261;-84
2021/09/25 08:01:32;;;;;;;10.77;7.03;;;20.30;85.10;;;;;;4765820;30;20035;-83
2021/09/25 08:03:58;;;;;;;10.38;7.18;;;20.40;85.00;;;;;;4750929;30;20058;-83
2021/09/25 08:06:24;;;;;;;12.35;6.60;;;20.50;84.20;;;;;;4751087;30;20112;-83
2021/09/25 08:08:49;;;;;;;10.93;6.30;;;20.60;83.80;;;;;;4765696;30;20110;-83
2021/09/25 08:11:15;;;;;;;7.97;5.47;;;20.80;83.00;;;;;;4784239;30;20220;-83
2021/09/25 08:13:42;;;;;;;10.00;6.00;;;21.00;82.70;;;;;;4751238;30;20039;-83
2021/09/25 08:16:08;;;;;;;8.00;5.97;;;21.20;82.80;;;;;;4775724;30;20044;-83
2021/09/25 08:18:34;;;;;;;23.50;7.78;;;21.50;82.80;;;;;;4754393;30;20362;-83
2021/09/25 08:20:59;;;;;;;12.90;5.80;;;21.60;80.80;;;;;;4754207;30;20039;-83
2021/09/25 08:23:25;;;;;;;12.13;6.38;;;21.70;80.50;;;;;;4753536;30;20027;-83
2021/09/25 08:25:53;;;;;;;8.95;5.80;;;21.80;79.70;;;;;;4768215;30;20039;-83
2021/09/25 08:28:19;;;;;;;12.13;5.90;;;22.10;79.60;;;;;;4753624;30;20058;-83
2021/09/25 08:30:45;;;;;;;16.90;6.95;;;22.30;79.40;;;;;;4749812;30;20035;-83
2021/09/25 08:33:11;;;;;;;11.73;6.82;;;22.50;78.30;;;;;;4767510;30;20046;-83
2021/09/25 08:35:37;;;;;;;10.57;6.70;;;22.70;76.90;;;;;;4753889;30;20114;-82
2021/09/25 08:38:03;;;;;;;10.55;6.38;;;22.80;75.50;;;;;;4753670;30;20055;-82
2021/09/25 08:40:31;;;;;;;11.82;6.82;;;23.00;76.60;;;;;;4768378;30;20034;-83
2021/09/25 08:42:56;;;;;;;7.90;5.35;;;23.10;75.60;;;;;;4754142;30;20107;-83
2021/09/25 08:45:24;;;;;;;9.23;5.13;;;23.30;74.70;;;;;;4768260;30;20039;-82
2021/09/25 08:47:50;;;;;;;11.27;5.50;;;23.50;75.10;;;;;;4784156;30;20056;-82
2021/09/25 08:50:17;;;;;;;8.57;4.75;;;23.60;73.30;;;;;;4753740;30;20046;-82
2021/09/25 08:52:43;;;;;;;;;;;23.80;72.80;;;;;;4754889;30;20340;-82
2021/09/25 08:55:11;;;;;;;6.72;4.40;;;23.90;71.90;;;;;;4750898;30;19977;-83
2021/09/25 08:57:39;;;;;;;7.18;4.63;;;24.20;71.40;;;;;;4750846;30;20035;-83
2021/09/25 09:00:23;;;;;;;5.57;4.15;;;24.30;69.50;;;;;;4780233;30;20089;-82
2021/09/25 09:02:49;;;;;;;7.25;4.57;;;24.50;68.60;;;;;;4765970;30;20035;-83
2021/09/25 09:05:29;;;;;;;7.43;4.53;;;24.50;67.40;;;;;;4753589;30;20044;-82
2021/09/25 09:07:59;;;;;;;10.50;3.40;;;24.40;67.50;;;;;;4763375;30;20047;-82
2021/09/25 09:10:37;;;;;;;8.00;3.53;;;24.40;67.70;;;;;;4756064;30;20043;-83
2021/09/25 09:13:05;;;;;;;6.80;3.90;;;24.50;66.40;;;;;;4751393;30;20035;-83
2021/09/25 09:15:32;;;;;;;5.07;3.40;;;24.60;65.30;;;;;;4752287;30;20051;-83
2021/09/25 09:18:00;;;;;;;;;;;24.80;65.30;;;;;;4741352;30;20355;-83
2021/09/25 09:20:33;;;;;;;5.80;3.13;;;24.90;63.10;;;;;;4767970;30;19906;-84
2021/09/25 09:23:18;;;;;;;4.57;3.38;;;25.00;62.70;;;;;;4783398;30;20250;-83
2021/09/25 09:25:44;;;;;;;11.05;3.35;;;25.10;61.70;;;;;;4767522;30;20046;-83
2021/09/25 09:28:21;;;;;;;4.88;3.03;;;25.30;61.90;;;;;;4753031;30;21347;-83
2021/09/25 09:30:49;;;;;;;10.25;3.22;;;25.40;61.60;;;;;;4752810;30;20044;-83
2021/09/25 09:33:31;;;;;;;5.97;3.47;;;25.40;59.90;;;;;;4752776;30;20035;-83
2021/09/25 09:36:26;;;;;;;4.20;3.10;;;25.60;59.50;;;;;;4767724;30;20043;-83
2021/09/25 09:39:10;;;;;;;4.78;3.38;;;25.60;58.50;;;;;;4753542;30;20272;-82
2021/09/25 09:41:42;;;;;;;5.90;3.67;;;25.70;59.90;;;;;;4767719;30;20051;-82
2021/09/25 09:44:23;;;;;;;8.05;3.25;;;25.80;60.10;;;;;;4753096;30;20084;-83
2021/09/25 09:47:01;;;;;;;6.00;3.53;;;26.00;60.70;;;;;;4766318;30;20143;-82
2021/09/25 09:49:28;;;;;;;4.25;3.40;;;26.30;58.60;;;;;;4770424;30;20090;-82
2021/09/25 09:51:56;;;;;;;5.97;3.35;;;26.30;58.20;;;;;;4752871;30;20044;-82
2021/09/25 09:54:26;;;;;;;8.63;3.88;;;26.40;58.00;;;;;;4752587;30;20031;-82
2021/09/25 09:57:06;;;;;;;5.25;3.47;;;26.50;58.90;;;;;;4753144;30;20051;-81
2021/09/25 09:59:31;;;;;;;11.10;4.05;;;26.40;58.70;;;;;;4752630;30;20062;-80
2021/09/25 10:01:57;;;;;;;6.80;3.70;;;26.60;59.70;;;;;;4753168;30;20028;-80
2021/09/25 10:04:23;;;;;;;4.85;3.63;;;26.70;57.20;;;;;;4767878;30;20047;-80
2021/09/25 10:06:51;;;;;;;6.75;4.07;;;26.70;56.80;;;;;;4752883;30;20067;-80
2021/09/25 10:09:22;;;;;;;8.40;3.78;;;26.70;56.80;;;;;;4783241;30;20347;-78
2021/09/25 10:11:54;;;;;;;8.55;3.75;;;26.70;57.20;;;;;;4765949;30;20035;-81
2021/09/25 10:14:22;;;;;;;8.75;3.67;;;26.90;57.50;;;;;;4766612;30;20074;-81
2021/09/25 10:16:49;;;;;;;9.52;3.45;;;26.90;56.80;;;;;;4754147;30;20065;-81
2021/09/25 10:19:16;;;;;;;;;;;27.00;55.90;;;;;;4749355;30;20224;-80
2021/09/25 10:21:45;;;;;;;6.57;3.67;;;27.00;56.80;;;;;;4752996;30;19948;-80
2021/09/25 10:24:37;;;;;;;6.20;3.50;;;27.00;57.70;;;;;;4761404;30;20032;-80
2021/09/25 10:27:05;;;;;;;5.70;4.28;;;27.20;57.20;;;;;;4751168;30;20463;-80
2021/09/25 10:29:31;;;;;;;5.22;3.47;;;27.30;55.60;;;;;;4736852;30;20043;-80
2021/09/25 10:32:16;;;;;;;10.88;4.10;;;27.50;57.50;;;;;;4765937;30;20074;-81
2021/09/25 10:35:13;;;;;;;7.72;4.70;;;27.50;56.10;;;;;;4751218;30;20043;-80
2021/09/25 10:38:01;;;;;;;5.60;4.07;;;27.40;54.40;;;;;;4750637;30;20507;-81
2021/09/25 10:40:30;;;;;;;4.97;3.90;;;27.30;54.80;;;;;;4748154;30;20036;-81
2021/09/25 10:43:00;;;;;;;7.35;4.00;;;27.20;53.70;;;;;;4748162;30;20028;-80
2021/09/25 10:45:32;;;;;;;5.43;3.78;;;27.30;54.80;;;;;;4733409;30;20040;-80
2021/09/25 10:48:14;;;;;;;5.93;3.72;;;27.30;54.90;;;;;;4747580;30;20082;-81
2021/09/25 10:51:11;;;;;;;5.20;3.33;;;27.30;54.40;;;;;;4748369;30;20024;-80
2021/09/25 10:53:40;;;;;;;6.13;3.55;;;27.50;55.00;;;;;;4732936;30;20032;-80
2021/09/25 10:56:26;;;;;;;6.82;3.70;;;27.70;54.70;;;;;;4732834;30;20119;-80
2021/09/25 10:58:58;;;;;;;5.68;3.53;;;27.80;54.70;;;;;;4747610;30;20541;-80
2021/09/25 11:01:34;;;;;;;8.38;3.72;;;28.00;56.00;;;;;;4733373;30;20046;-80
2021/09/25 11:04:10;;;;;;;5.55;3.88;;;28.20;54.50;;;;;;4763659;30;20086;-80
2021/09/25 11:06:48;;;;;;;6.68;4.25;;;28.20;52.50;;;;;;4747925;30;20260;-81
2021/09/25 11:09:27;;;;;;;9.00;3.63;;;28.10;52.10;;;;;;4747584;30;20042;-80
2021/09/25 11:12:03;;;;;;;7.43;3.70;;;28.10;52.60;;;;;;4747263;30;20058;-80
2021/09/25 11:14:46;;;;;;;4.45;4.05;;;28.10;52.70;;;;;;4747594;30;20055;-80
2021/09/25 11:17:17;;;;;;;4.03;3.63;;;28.20;52.50;;;;;;4744774;30;20040;-80
2021/09/25 11:20:01;;;;;;;4.70;3.60;;;28.10;53.00;;;;;;4747285;30;20095;-80
2021/09/25 11:22:28;;;;;;;4.90;3.47;;;28.10;51.60;;;;;;4747861;30;20036;-80
2021/09/25 11:25:05;;;;;;;6.30;3.40;;;28.10;51.50;;;;;;4740909;30;20389;-80
2021/09/25 11:27:33;;;;;;;6.03;3.95;;;28.30;50.90;;;;;;4763564;30;20028;-80
2021/09/25 11:30:14;;;;;;;4.68;3.22;;;28.40;51.40;;;;;;4747570;30;20032;-80
2021/09/25 11:32:46;;;;;;;6.13;3.35;;;28.60;51.90;;;;;;4747538;30;20231;-81
2021/09/25 11:35:16;;;;;;;4.70;2.70;;;28.80;51.80;;;;;;4747223;30;20389;-80
2021/09/25 11:37:52;;;;;;;5.55;3.47;;;28.90;49.60;;;;;;4747843;30;20043;-80
2021/09/25 11:40:21;;;;;;;4.82;3.50;;;28.80;49.20;;;;;;4747812;30;20371;-80
2021/09/25 11:42:48;;;;;;;4.22;3.42;;;28.70;50.40;;;;;;4747708;30;20103;-80
2021/09/25 11:45:17;;;;;;;;;;;28.80;51.00;;;;;;4735113;30;20043;-80
2021/09/25 11:47:46;;;;;;;5.20;3.67;;;28.80;50.80;;;;;;4736347;30;19918;-80
2021/09/25 11:50:14;;;;;;;5.22;3.30;;;28.80;49.80;;;;;;4751394;30;20051;-80
2021/09/25 11:52:43;;;;;;;8.27;3.95;;;28.90;51.00;;;;;;4767219;30;20032;-80
2021/09/25 11:55:10;;;;;;;4.38;3.45;;;29.00;51.20;;;;;;4751360;30;20347;-80
2021/09/25 11:57:36;;;;;;;4.25;3.30;;;29.00;49.70;;;;;;4736583;30;20110;-80
2021/09/25 12:00:28;;;;;;;5.80;3.40;;;29.00;49.60;;;;;;4736398;30;20262;-79
2021/09/25 12:02:55;;;;;;;8.07;3.92;;;29.00;49.20;;;;;;4767048;30;20054;-80
2021/09/25 12:05:43;;;;;;;4.32;3.65;;;29.10;48.50;;;;;;4736654;30;20036;-80
2021/09/25 12:08:10;;;;;;;6.60;3.60;;;29.00;49.80;;;;;;4751292;30;20096;-80
2021/09/25 12:10:46;;;;;;;7.47;3.67;;;29.00;48.70;;;;;;4751013;30;20032;-79
2021/09/25 12:13:33;;;;;;;3.72;3.20;;;28.90;48.40;;;;;;4751052;30;20072;-80
2021/09/25 12:16:02;;;;;;;5.10;3.50;;;29.00;49.80;;;;;;4736138;30;20351;-80
2021/09/25 12:18:30;;;;;;;6.72;3.58;;;29.10;49.20;;;;;;4766715;30;20062;-80
2021/09/25 12:21:05;;;;;;;7.05;3.42;;;29.20;49.00;;;;;;4766110;30;20061;-79
2021/09/25 12:23:59;;;;;;;4.13;3.37;;;29.30;48.80;;;;;;4766628;30;20028;-80
2021/09/25 12:26:28;;;;;;;5.30;3.47;;;29.20;49.00;;;;;;4698215;30;20139;-79
2021/09/25 12:28:59;;;;;;;4.53;3.30;;;29.30;50.10;;;;;;4698171;30;20124;-80
2021/09/25 12:31:26;;;;;;;5.10;2.80;;;29.30;47.50;;;;;;4712580;30;20095;-80
2021/09/25 12:33:55;;;;;;;3.95;3.30;;;29.30;48.20;;;;;;4697715;30;20042;-80
2021/09/25 12:36:27;;;;;;;6.13;3.80;;;29.30;47.40;;;;;;4712398;30;20045;-80
2021/09/25 12:38:54;;;;;;;7.60;2.90;;;29.30;48.10;;;;;;4698135;30;20320;-80
2021/09/25 12:41:26;;;;;;;4.30;3.30;;;29.30;48.10;;;;;;4697956;30;20034;-79
2021/09/25 12:43:56;;;;;;;7.22;2.97;;;29.20;46.50;;;;;;4712129;30;20073;-80
2021/09/25 12:46:33;;;;;;;5.25;3.05;;;29.40;46.90;;;;;;4717337;30;20065;-80
2021/09/25 12:49:11;;;;;;;5.43;3.08;;;29.50;47.20;;;;;;4714991;30;20126;-79
2021/09/25 12:51:36;;;;;;;4.82;3.30;;;29.50;44.90;;;;;;4714863;30;20128;-80
2021/09/25 12:54:15;;;;;;;7.93;2.53;;;29.40;45.40;;;;;;4714812;30;20344;-80
2021/09/25 12:56:49;;;;;;;4.57;3.10;;;29.50;44.50;;;;;;4728318;30;20102;-80
2021/09/25 12:59:18;;;;;;;4.05;3.05;;;29.60;45.70;;;;;;4729488;30;20120;-79
2021/09/25 13:01:49;;;;;;;5.10;3.13;;;29.50;44.40;;;;;;4715032;30;20321;-79
2021/09/25 13:04:20;;;;;;;3.92;2.75;;;29.60;44.80;;;;;;4758684;30;20108;-79
2021/09/25 13:06:47;;;;;;;3.83;2.55;;;29.70;44.40;;;;;;4782712;30;20311;-79
2021/09/25 13:09:13;;;;;;;3.90;2.83;;;29.70;42.70;;;;;;4783888;30;20070;-79
2021/09/25 13:11:39;;;;;;;3.37;2.10;;;29.70;41.50;;;;;;4768142;30;20040;-79
2021/09/25 13:14:13;;;;;;;2.50;2.00;;;29.70;38.80;;;;;;4783860;30;20080;-79
2021/09/25 13:16:42;;;;;;;4.15;2.25;;;29.80;37.00;;;;;;4784184;30;20035;-80
2021/09/25 13:19:09;;;;;;;2.58;1.92;;;29.60;37.10;;;;;;4767564;30;20095;-80
2021/09/25 13:21:36;;;;;;;6.15;2.38;;;29.40;37.10;;;;;;4766697;30;20498;-79
2021/09/25 13:24:08;;;;;;;2.85;2.10;;;29.20;36.80;;;;;;4750182;30;20055;-79
2021/09/25 13:26:38;;;;;;;3.17;2.30;;;29.20;38.30;;;;;;4765647;30;20040;-79
2021/09/25 13:29:05;;;;;;;3.75;1.80;;;29.20;38.70;;;;;;4749902;30;20040;-79
2021/09/25 13:31:32;;;;;;;2.42;1.98;;;29.20;37.00;;;;;;4750233;30;20061;-79
2021/09/25 13:33:58;;;;;;;2.38;1.95;;;29.10;36.70;;;;;;4749919;30;20077;-79
2021/09/25 13:36:24;;;;;;;2.83;1.90;;;29.10;38.10;;;;;;4766154;30;20034;-79
2021/09/25 13:38:50;;;;;;;2.00;1.77;;;29.20;37.70;;;;;;4766263;30;20230;-79
2021/09/25 13:41:18;;;;;;;4.07;1.83;;;29.10;36.50;;;;;;4768448;30;20319;-79
2021/09/25 13:43:44;;;;;;;2.80;1.80;;;29.20;35.50;;;;;;4753533;30;20185;-80
2021/09/25 13:46:09;;;;;;;2.47;1.97;;;29.30;36.50;;;;;;4753548;30;20066;-80
2021/09/25 13:48:35;;;;;;;2.05;1.83;;;29.20;35.30;;;;;;4753544;30;20043;-80
2021/09/25 13:51:01;;;;;;;1.77;1.60;;;29.10;34.80;;;;;;4768497;30;20035;-79
2021/09/25 13:53:27;;;;;;;2.83;1.73;;;29.00;35.80;;;;;;4753628;30;20088;-79
2021/09/25 13:55:53;;;;;;;2.30;1.40;;;29.00;35.30;;;;;;4767919;30;20055;-79
2021/09/25 13:58:19;;;;;;;2.90;1.70;;;28.90;35.50;;;;;;4752266;30;20100;-80
2021/09/25 14:00:46;;;;;;;2.50;1.30;;;28.90;33.90;;;;;;4780105;30;20031;-81
2021/09/25 14:03:12;;;;;;;2.80;1.40;;;28.70;35.00;;;;;;4753914;30;20039;-78
2021/09/25 14:05:38;;;;;;;2.30;1.83;;;28.60;34.40;;;;;;4770728;30;20027;-78
2021/09/25 14:08:06;;;;;;;1.73;1.43;;;28.60;35.70;;;;;;4754034;30;20119;-78
2021/09/25 14:10:36;;;;;;;2.05;1.85;;;28.60;35.80;;;;;;4773877;30;20023;-78
2021/09/25 14:13:03;;;;;;;2.28;2.05;;;28.50;35.20;;;;;;4753966;30;20193;-79
2021/09/25 14:15:29;;;;;;;2.60;1.92;;;28.60;35.10;;;;;;4768663;30;20047;-78
2021/09/25 14:17:55;;;;;;;3.77;2.03;;;28.60;34.50;;;;;;4770059;30;21264;-78
2021/09/25 14:20:21;;;;;;;6.23;1.70;;;28.60;34.60;;;;;;4769271;30;20057;-78
2021/09/25 14:22:46;;;;;;;3.75;2.05;;;28.70;35.70;;;;;;4768971;30;20032;-78
2021/09/25 14:25:12;;;;;;;6.13;2.00;;;28.60;35.00;;;;;;4769122;30;20039;-78
2021/09/25 14:27:38;;;;;;;1.80;1.60;;;28.60;35.40;;;;;;4768586;30;20028;-78
2021/09/25 14:30:05;;;;;;;4.22;1.52;;;28.60;35.60;;;;;;4754543;30;20043;-78
2021/09/25 14:32:31;;;;;;;3.00;1.67;;;28.60;35.00;;;;;;4768409;30;20036;-78
2021/09/25 14:34:57;;;;;;;3.03;1.90;;;28.60;36.10;;;;;;4768701;30;20110;-78
2021/09/25 14:37:23;;;;;;;2.13;1.92;;;28.60;36.50;;;;;;4784689;30;20062;-78
2021/09/25 14:39:49;;;;;;;3.67;1.67;;;28.60;35.50;;;;;;4754119;30;20020;-78
2021/09/25 14:42:15;;;;;;;2.90;2.00;;;28.50;35.70;;;;;;4753289;30;20099;-78
2021/09/25 14:44:40;;;;;;;5.43;1.63;;;28.50;37.50;;;;;;4778408;30;20042;-79
2021/09/25 14:47:07;;;;;;;4.30;1.95;;;28.50;36.50;;;;;;4753551;30;20079;-79
2021/09/25 14:49:33;;;;;;;2.38;1.85;;;28.50;36.30;;;;;;4784754;30;20043;-78
2021/09/25 14:51:59;;;;;;;2.85;2.13;;;28.60;36.10;;;;;;4756027;30;20090;-81
2021/09/25 14:54:25;;;;;;;10.30;2.20;;;28.60;36.70;;;;;;4758221;30;20043;-79
2021/09/25 14:56:51;;;;;;;1.92;1.83;;;28.60;37.80;;;;;;4735946;30;20047;-79
2021/09/25 14:59:18;;;;;;;2.85;1.90;;;28.60;38.40;;;;;;4736464;30;20032;-79
2021/09/25 15:01:44;;;;;;;4.37;2.90;;;28.60;38.10;;;;;;4736683;30;20063;-79
2021/09/25 15:04:10;;;;;;;4.85;2.45;;;28.40;39.70;;;;;;4738847;30;20273;-80
2021/09/25 15:06:36;;;;;;;3.55;2.35;;;28.40;40.30;;;;;;4781848;30;20039;-79
2021/09/25 15:09:03;;;;;;;7.20;2.70;;;28.30;40.70;;;;;;4768012;30;20042;-79
2021/09/25 15:11:29;;;;;;;4.50;2.42;;;28.20;41.30;;;;;;4768940;30;20057;-80
2021/09/25 15:13:55;;;;;;;2.27;2.07;;;28.10;40.90;;;;;;4768340;30;20088;-79
2021/09/25 15:16:20;;;;;;;2.53;2.33;;;28.00;41.80;;;;;;4754829;30;20030;-80
2021/09/25 15:18:46;;;;;;;2.80;2.55;;;28.00;42.50;;;;;;4764725;30;20046;-79
2021/09/25 15:21:12;;;;;;;3.33;2.40;;;27.90;41.50;;;;;;4767891;30;20036;-79
2021/09/25 15:23:38;;;;;;;2.95;2.15;;;27.90;42.50;;;;;;4767170;30;20410;-79
2021/09/25 15:26:05;;;;;;;9.73;2.80;;;27.90;42.20;;;;;;4769289;30;20036;-80
2021/09/25 15:28:31;;;;;;;3.65;2.67;;;27.70;42.00;;;;;;4753463;30;20036;-79
2021/09/25 15:30:57;;;;;;;4.13;2.60;;;27.60;42.50;;;;;;4768173;30;20133;-79
2021/09/25 15:33:23;;;;;;;3.70;2.92;;;27.50;44.30;;;;;;4764312;30;20032;-79